Walton Hills, Ohio
Current Conditions -  °F | °C
As of 2:53 PM on Thursday 27 Nov 2014 (Local Time) from KBKL Reporting Station
Overcast Overcast  
Wind Chill: 22°   Ceiling: 3300
Heat Index: 33°   Visibility: 10mi
Dew Point: 24°   Wind: 20mph
Humidity: 70%   Direction: 280°W
Pressure: 30.14"   Gusts: NA
Location:  41.3816°N, 81.5301°W
Report Text: KBKL 271953Z 28017KT 10SM BKN033 OVC040 01/M04 A3014 RMK AO2 PK WND 28026/1900 SLP213 T00061044
Loading
Personal Weather Stations






























Interactive Weather Map New forecast layout! Learn more

10-Day Weather Forecast

Advertisements
Track Severe Weather on mobile